createdAt,value
2018-03-04T00:01:05.292Z,54.27
2018-03-04T00:03:33.114Z,54.20
2018-03-04T00:06:00.709Z,58.00
2018-03-04T00:08:28.341Z,57.20
2018-03-04T00:10:55.972Z,60.00
2018-03-04T00:13:23.542Z,61.20
2018-03-04T00:15:51.302Z,59.07
2018-03-04T00:18:19.018Z,59.17
2018-03-04T00:20:46.837Z,60.57
2018-03-04T00:23:14.405Z,66.50
2018-03-04T00:25:41.986Z,70.13
2018-03-04T00:28:09.541Z,73.80
2018-03-04T00:30:37.309Z,70.97
2018-03-04T00:33:04.873Z,73.40
2018-03-04T00:35:32.442Z,73.27
2018-03-04T00:38:00.263Z,73.57
2018-03-04T00:40:27.822Z,61.00
2018-03-04T00:42:55.563Z,57.30
2018-03-04T00:45:23.135Z,71.10
2018-03-04T00:47:50.762Z,62.30
2018-03-04T00:50:18.370Z,63.27
2018-03-04T00:52:45.930Z,62.27
2018-03-04T00:55:13.505Z,63.50
2018-03-04T00:57:41.308Z,91.70
2018-03-04T01:00:09.124Z,92.00
2018-03-04T01:02:36.841Z,73.17
2018-03-04T01:05:04.530Z,70.50
2018-03-04T01:07:32.100Z,74.40
2018-03-04T01:09:59.896Z,71.27
2018-03-04T01:12:27.448Z,71.73
2018-03-04T01:14:55.115Z,79.87
2018-03-04T01:17:22.851Z,82.17
2018-03-04T01:19:50.411Z,81.37
2018-03-04T01:22:18.066Z,83.17
2018-03-04T01:24:45.804Z,83.13
2018-03-04T01:27:13.623Z,84.97
2018-03-04T01:29:41.325Z,82.77
2018-03-04T01:32:08.895Z,86.63
2018-03-04T01:34:36.653Z,88.00
2018-03-04T01:37:04.245Z,96.80
2018-03-04T01:39:31.851Z,94.53
2018-03-04T01:41:59.443Z,94.50
2018-03-04T01:44:27.249Z,97.37
2018-03-04T01:46:54.813Z,99.97
2018-03-04T01:49:22.585Z,98.33
2018-03-04T01:51:53.094Z,96.47
2018-03-04T01:54:20.682Z,86.47
2018-03-04T01:56:48.305Z,84.53
2018-03-04T01:59:15.948Z,83.20
2018-03-04T02:01:43.510Z,88.43
2018-03-04T02:04:11.088Z,84.07
2018-03-04T02:06:38.650Z,81.50
2018-03-04T02:09:06.409Z,83.73
2018-03-04T02:11:33.966Z,77.03
2018-03-04T02:14:01.594Z,80.53
2018-03-04T02:16:29.392Z,114.73
2018-03-04T02:18:56.991Z,118.10
2018-03-04T02:21:24.557Z,95.67
2018-03-04T02:23:52.132Z,102.83
2018-03-04T02:26:19.866Z,91.47
2018-03-04T02:28:47.479Z,81.23
2018-03-04T02:31:15.095Z,92.00
2018-03-04T02:33:42.699Z,100.07
2018-03-04T02:36:10.262Z,86.77
2018-03-04T02:38:38.053Z,68.60
2018-03-04T02:41:05.662Z,75.97
2018-03-04T02:43:33.490Z,79.77
2018-03-04T02:46:01.054Z,82.10
2018-03-04T02:48:28.913Z,83.63
2018-03-04T02:50:56.493Z,83.17
2018-03-04T02:53:24.262Z,94.53
2018-03-04T02:55:51.837Z,86.53
2018-03-04T02:58:19.403Z,83.80
2018-03-04T03:00:47.216Z,91.97
2018-03-04T03:03:14.777Z,100.70
2018-03-04T03:05:42.398Z,92.37
2018-03-04T03:08:09.959Z,91.07
2018-03-04T03:10:37.521Z,90.87
2018-03-04T03:13:05.305Z,89.43
2018-03-04T03:15:32.866Z,86.00
2018-03-04T03:18:00.641Z,89.57
2018-03-04T03:20:28.359Z,93.00
2018-03-04T03:22:56.178Z,93.67
2018-03-04T03:25:23.774Z,89.73
2018-03-04T03:27:51.364Z,91.67
2018-03-04T03:30:18.930Z,91.50
2018-03-04T03:32:46.495Z,94.40
2018-03-04T03:35:14.073Z,89.80
2018-03-04T03:37:41.885Z,90.93
2018-03-04T03:40:09.704Z,93.73
2018-03-04T03:42:37.276Z,95.10
2018-03-04T03:45:04.930Z,88.53
2018-03-04T03:47:32.507Z,92.53
2018-03-04T03:50:00.153Z,88.10
2018-03-04T03:52:27.732Z,90.50
2018-03-04T03:54:55.513Z,94.03
2018-03-04T03:57:23.153Z,90.17
2018-03-04T03:59:50.863Z,85.73
2018-03-04T04:02:18.456Z,85.93
2018-03-04T04:04:46.030Z,107.17
2018-03-04T04:07:13.792Z,97.17
2018-03-04T04:09:41.622Z,92.33
2018-03-04T04:12:09.283Z,92.60
2018-03-04T04:14:37.156Z,92.83
2018-03-04T04:17:04.723Z,90.43
2018-03-04T04:19:32.378Z,89.73
2018-03-04T04:22:00.000Z,79.23
2018-03-04T04:24:27.570Z,80.80
2018-03-04T04:26:55.118Z,91.80
2018-03-04T04:29:22.832Z,85.57
2018-03-04T04:31:50.467Z,81.20
2018-03-04T04:34:18.162Z,82.37
2018-03-04T04:36:45.718Z,98.40
2018-03-04T04:39:13.282Z,91.73
2018-03-04T04:41:40.838Z,87.40
2018-03-04T04:44:08.460Z,90.53
2018-03-04T04:46:36.022Z,88.70
2018-03-04T04:49:03.906Z,91.47
2018-03-04T04:51:31.725Z,88.03
2018-03-04T04:53:59.416Z,90.10
2018-03-04T04:56:27.027Z,89.27
2018-03-04T04:58:54.590Z,83.10
2018-03-04T05:01:22.218Z,56.47
2018-03-04T05:03:49.773Z,39.33
2018-03-04T05:06:17.609Z,44.13
2018-03-04T05:08:45.313Z,47.57
2018-03-04T05:11:12.870Z,37.30
2018-03-04T05:13:40.476Z,32.53
2018-03-04T05:16:08.027Z,33.30
2018-03-04T05:18:35.646Z,28.63
2018-03-04T05:21:03.441Z,30.67
2018-03-04T05:23:31.135Z,28.20
2018-03-04T05:25:58.702Z,27.90
2018-03-04T05:28:26.258Z,23.50
2018-03-04T05:30:53.802Z,27.07
2018-03-04T05:33:21.354Z,23.90
2018-03-04T05:35:49.147Z,24.43
2018-03-04T05:38:16.833Z,23.93
2018-03-04T05:40:44.548Z,24.30
2018-03-04T05:43:12.264Z,24.03
2018-03-04T05:45:39.822Z,24.03
2018-03-04T05:48:07.429Z,25.63
2018-03-04T05:50:35.034Z,27.90
2018-03-04T05:53:02.646Z,24.83
2018-03-04T05:55:30.198Z,23.80
2018-03-04T05:57:58.786Z,24.20
2018-03-04T06:00:26.349Z,27.33
2018-03-04T06:02:54.144Z,26.83
2018-03-04T06:05:21.707Z,30.00
2018-03-04T06:07:49.262Z,29.43
2018-03-04T06:10:17.069Z,29.03
2018-03-04T06:12:44.784Z,29.00
2018-03-04T06:15:12.500Z,30.17
2018-03-04T06:17:40.064Z,29.50
2018-03-04T06:20:07.831Z,31.50
2018-03-04T06:22:35.594Z,33.10
2018-03-04T06:25:03.164Z,30.50
2018-03-04T06:27:30.788Z,32.40
2018-03-04T06:29:58.360Z,32.03
2018-03-04T06:32:25.913Z,34.50
2018-03-04T06:34:53.680Z,31.57
2018-03-04T06:37:21.234Z,30.00
2018-03-04T06:39:49.018Z,30.60
2018-03-04T06:42:16.569Z,32.03
2018-03-04T06:44:44.185Z,32.17
2018-03-04T06:47:11.935Z,31.90
2018-03-04T06:49:39.486Z,36.33
2018-03-04T06:52:07.072Z,35.60
2018-03-04T06:54:34.630Z,35.87
2018-03-04T06:57:02.442Z,39.17
2018-03-04T06:59:30.142Z,35.43
2018-03-04T07:01:57.978Z,38.23
2018-03-04T07:04:25.545Z,37.80
2018-03-04T07:06:53.098Z,52.40
2018-03-04T07:09:20.662Z,41.43
2018-03-04T07:11:48.228Z,36.50
2018-03-04T07:14:15.790Z,41.70
2018-03-04T07:16:43.346Z,43.23
2018-03-04T07:19:10.962Z,38.53
2018-03-04T07:21:38.517Z,61.30
2018-03-04T07:24:06.238Z,50.33
2018-03-04T07:26:33.806Z,42.17
2018-03-04T07:29:01.364Z,45.83
2018-03-04T07:31:28.988Z,42.93
2018-03-04T07:33:56.545Z,41.93
2018-03-04T07:36:24.327Z,42.50
2018-03-04T07:38:51.889Z,45.73
2018-03-04T07:41:19.642Z,41.87
2018-03-04T07:43:47.483Z,54.53
2018-03-04T07:46:15.035Z,49.10
2018-03-04T07:48:42.598Z,47.77
2018-03-04T07:51:10.220Z,50.17
2018-03-04T07:53:37.921Z,48.63
2018-03-04T07:56:05.563Z,50.83
2018-03-04T07:58:33.126Z,53.03
2018-03-04T08:01:00.698Z,49.03
2018-03-04T08:03:28.254Z,58.17
2018-03-04T08:05:55.805Z,45.33
2018-03-04T08:08:23.430Z,45.60
2018-03-04T08:10:50.987Z,46.00
2018-03-04T08:13:18.550Z,42.17
2018-03-04T08:15:46.313Z,46.10
2018-03-04T08:18:13.870Z,49.43
2018-03-04T08:20:41.650Z,51.37
2018-03-04T08:23:09.199Z,42.87
2018-03-04T08:25:36.986Z,38.40
2018-03-04T08:28:16.388Z,41.70
2018-03-04T08:30:44.163Z,40.53
2018-03-04T08:33:11.719Z,36.70
2018-03-04T08:35:39.602Z,39.10
2018-03-04T08:38:07.424Z,38.40
2018-03-04T08:40:34.996Z,41.53
2018-03-04T08:43:02.563Z,42.63
2018-03-04T08:45:30.379Z,84.87
2018-03-04T08:47:57.943Z,42.17
2018-03-04T08:50:25.667Z,40.73
2018-03-04T08:52:53.528Z,41.83
2018-03-04T08:55:21.100Z,39.07
2018-03-04T08:57:48.666Z,34.80
2018-03-04T09:00:16.483Z,37.03
2018-03-04T09:02:44.299Z,31.20
2018-03-04T09:05:11.908Z,31.60
2018-03-04T09:07:39.635Z,47.47
2018-03-04T09:10:07.454Z,40.23
2018-03-04T09:12:35.022Z,38.40
2018-03-04T09:15:02.789Z,34.70
2018-03-04T09:17:30.358Z,31.20
2018-03-04T09:19:58.085Z,34.20
2018-03-04T09:22:25.654Z,56.47
2018-03-04T09:24:53.208Z,41.20
2018-03-04T09:27:20.870Z,40.87
2018-03-04T09:29:48.439Z,41.00
2018-03-04T09:32:16.011Z,38.27
2018-03-04T09:34:43.618Z,54.47
2018-03-04T09:37:11.179Z,39.83
2018-03-04T09:39:38.755Z,37.57
2018-03-04T09:42:06.486Z,37.77
2018-03-04T09:44:34.303Z,37.50
2018-03-04T09:47:01.870Z,38.03
2018-03-04T09:49:29.412Z,38.17
2018-03-04T09:51:57.049Z,41.10
2018-03-04T09:54:24.606Z,42.70
2018-03-04T09:56:52.397Z,48.40
2018-03-04T09:59:20.212Z,48.00
2018-03-04T10:01:47.833Z,55.40
2018-03-04T10:04:15.400Z,43.83
2018-03-04T10:06:43.046Z,40.03
2018-03-04T10:09:10.615Z,33.57
2018-03-04T10:11:38.184Z,37.70
2018-03-04T10:14:05.918Z,40.27
2018-03-04T10:16:33.740Z,39.30
2018-03-04T10:19:01.354Z,52.63
2018-03-04T10:21:28.915Z,47.77
2018-03-04T10:23:56.654Z,79.10
2018-03-04T10:26:24.300Z,66.60
2018-03-04T10:28:51.865Z,38.20
2018-03-04T10:31:19.466Z,41.23
2018-03-04T10:33:47.023Z,38.30
2018-03-04T10:36:14.880Z,86.87
2018-03-04T10:38:42.578Z,45.83
2018-03-04T10:41:10.130Z,40.70
2018-03-04T10:43:37.725Z,37.53
2018-03-04T10:46:05.453Z,40.47
2018-03-04T10:48:33.026Z,65.70
2018-03-04T10:51:00.596Z,46.47
2018-03-04T10:53:28.398Z,46.03
2018-03-04T10:55:55.998Z,44.77
2018-03-04T10:58:23.644Z,50.60
2018-03-04T11:00:56.806Z,55.47
2018-03-04T11:03:24.598Z,45.07
2018-03-04T11:05:52.210Z,48.50
2018-03-04T11:08:19.809Z,48.30
2018-03-04T11:10:47.480Z,53.60
2018-03-04T11:13:15.050Z,75.53
2018-03-04T11:15:42.627Z,130.67
2018-03-04T11:18:10.186Z,127.47
2018-03-04T11:20:37.923Z,94.13
2018-03-04T11:23:05.510Z,61.17
2018-03-04T11:25:33.087Z,51.23
2018-03-04T11:28:00.698Z,71.80
2018-03-04T11:30:28.357Z,55.47
2018-03-04T11:32:55.938Z,62.90
2018-03-04T11:35:23.734Z,64.93
2018-03-04T11:37:51.306Z,50.40
2018-03-04T11:40:18.877Z,58.30
2018-03-04T11:42:46.644Z,53.47
2018-03-04T11:45:14.278Z,54.30
2018-03-04T11:47:41.864Z,55.97
2018-03-04T11:50:09.638Z,55.93
2018-03-04T11:52:37.458Z,54.43
2018-03-04T11:55:05.022Z,54.90
2018-03-04T11:57:32.599Z,58.00
2018-03-04T12:00:00.158Z,50.77
2018-03-04T12:02:27.777Z,56.40
2018-03-04T12:04:55.550Z,55.87
2018-03-04T12:07:23.163Z,54.73
2018-03-04T12:09:50.847Z,51.27
2018-03-04T12:12:18.409Z,62.67
2018-03-04T12:14:45.963Z,62.97
2018-03-04T12:17:13.735Z,69.40
2018-03-04T12:19:41.434Z,77.37
2018-03-04T12:22:09.000Z,78.43
2018-03-04T12:24:36.575Z,58.67
2018-03-04T12:27:04.151Z,62.13
2018-03-04T12:29:31.717Z,53.87
2018-03-04T12:31:59.302Z,59.47
2018-03-04T12:34:26.866Z,50.37
2018-03-04T12:36:54.513Z,55.33
2018-03-04T12:39:22.297Z,59.97
2018-03-04T12:41:49.861Z,57.63
2018-03-04T12:44:17.598Z,53.83
2018-03-04T12:46:45.241Z,53.27
2018-03-04T12:49:12.818Z,68.20
2018-03-04T12:51:40.396Z,61.53
2018-03-04T12:54:08.206Z,70.97
2018-03-04T12:56:35.913Z,70.33
2018-03-04T12:59:03.740Z,58.13
2018-03-04T13:01:31.557Z,60.73
2018-03-04T13:03:59.379Z,75.60
2018-03-04T13:06:26.966Z,52.73
2018-03-04T13:08:54.713Z,56.90
2018-03-04T13:11:22.532Z,57.30
2018-03-04T13:13:50.087Z,65.73
2018-03-04T13:16:17.770Z,57.30
2018-03-04T13:18:45.585Z,91.93
2018-03-04T13:21:13.182Z,65.03
2018-03-04T13:23:40.758Z,53.43
2018-03-04T13:26:08.325Z,59.13
2018-03-04T13:28:35.935Z,55.20
2018-03-04T13:31:03.651Z,52.43
2018-03-04T13:33:31.218Z,58.43
2018-03-04T13:35:59.011Z,57.90
2018-03-04T13:38:26.574Z,89.47
2018-03-04T13:40:54.238Z,68.17
2018-03-04T13:43:21.817Z,60.23
2018-03-04T13:45:49.518Z,61.43
2018-03-04T13:48:17.219Z,66.80
2018-03-04T13:50:44.791Z,62.97
2018-03-04T13:53:12.372Z,82.53
2018-03-04T13:55:40.154Z,69.83
2018-03-04T13:58:07.734Z,125.40
2018-03-04T14:00:35.491Z,68.43
2018-03-04T14:03:03.147Z,63.17
2018-03-04T14:05:30.811Z,111.33
2018-03-04T14:07:58.374Z,72.23
2018-03-04T14:10:25.945Z,69.97
2018-03-04T14:12:53.680Z,67.43
2018-03-04T14:15:21.253Z,67.73
2018-03-04T14:17:48.984Z,71.53
2018-03-04T14:20:16.608Z,91.37
2018-03-04T14:22:44.340Z,97.40
2018-03-04T14:25:11.902Z,70.30
2018-03-04T14:27:39.484Z,88.63
2018-03-04T14:30:07.046Z,100.17
2018-03-04T14:32:34.807Z,78.27
2018-03-04T14:35:02.487Z,74.33
2018-03-04T14:37:30.259Z,62.13
2018-03-04T14:39:57.831Z,77.43
2018-03-04T14:42:25.394Z,66.53
2018-03-04T14:44:53.022Z,66.80
2018-03-04T14:47:20.845Z,76.70
2018-03-04T14:49:48.411Z,66.27
2018-03-04T14:52:15.986Z,61.43
2018-03-04T14:54:43.549Z,64.07
2018-03-04T14:57:11.131Z,66.37
2018-03-04T14:59:38.920Z,63.67
2018-03-04T15:02:06.482Z,66.40
2018-03-04T15:04:34.124Z,69.70
2018-03-04T15:07:01.875Z,77.60
2018-03-04T15:09:29.450Z,67.30
2018-03-04T15:11:57.401Z,75.20
2018-03-04T15:14:25.009Z,80.93
2018-03-04T15:16:52.570Z,78.40
2018-03-04T15:19:20.256Z,91.23
2018-03-04T15:21:47.830Z,90.83
2018-03-04T15:24:15.394Z,81.73
2018-03-04T15:26:43.218Z,102.53
2018-03-04T15:29:10.777Z,88.43
2018-03-04T15:31:38.387Z,86.07
2018-03-04T15:34:05.952Z,85.53
2018-03-04T15:36:33.581Z,88.30
2018-03-04T15:39:01.157Z,95.80
2018-03-04T15:41:28.747Z,81.03
2018-03-04T15:43:56.315Z,83.93
2018-03-04T15:46:23.877Z,81.87
2018-03-04T15:48:51.498Z,82.10
2018-03-04T15:51:19.296Z,82.63
2018-03-04T15:53:46.908Z,92.67
2018-03-04T15:56:14.732Z,110.47
2018-03-04T15:58:42.310Z,163.60
2018-03-04T16:01:09.886Z,93.37
2018-03-04T16:03:38.148Z,100.50
2018-03-04T16:06:06.007Z,80.20
2018-03-04T16:08:33.567Z,70.57
2018-03-04T16:11:01.132Z,87.83
2018-03-04T16:13:28.706Z,91.17
2018-03-04T16:15:56.478Z,74.43
2018-03-04T16:18:24.050Z,86.30
2018-03-04T16:20:51.705Z,88.10
2018-03-04T16:23:19.535Z,103.77
2018-03-04T16:25:47.104Z,93.13
2018-03-04T16:28:14.838Z,100.33
2018-03-04T16:30:42.553Z,97.83
2018-03-04T16:33:10.152Z,98.67
2018-03-04T16:35:37.731Z,102.37
2018-03-04T16:38:05.324Z,99.77
2018-03-04T16:40:32.950Z,108.00
2018-03-04T16:43:00.674Z,110.70
2018-03-04T16:45:28.493Z,112.13
2018-03-04T16:47:56.135Z,114.63
2018-03-04T16:50:23.655Z,122.47
2018-03-04T16:52:51.249Z,130.27
2018-03-04T16:55:18.818Z,132.70
2018-03-04T16:57:46.529Z,139.23
2018-03-04T17:00:14.306Z,137.80
2018-03-04T17:02:41.925Z,153.13
2018-03-04T17:05:09.498Z,117.70
2018-03-04T17:07:37.068Z,90.00
2018-03-04T17:10:04.871Z,85.63
2018-03-04T17:12:32.445Z,87.83
2018-03-04T17:15:00.080Z,88.07
2018-03-04T17:17:27.826Z,89.97
2018-03-04T17:19:55.544Z,107.63
2018-03-04T17:22:23.096Z,93.70
2018-03-04T17:24:50.722Z,90.60
2018-03-04T17:27:18.502Z,97.20
2018-03-04T17:29:46.224Z,117.87
2018-03-04T17:32:13.899Z,129.67
2018-03-04T17:34:41.447Z,127.87
2018-03-04T17:37:09.013Z,123.33
2018-03-04T17:39:36.755Z,107.17
2018-03-04T17:42:04.470Z,103.83
2018-03-04T17:44:32.103Z,98.17
2018-03-04T17:46:59.657Z,108.40
2018-03-04T17:49:27.289Z,110.57
2018-03-04T17:51:55.089Z,138.73
2018-03-04T17:54:22.896Z,124.60
2018-03-04T17:56:50.715Z,117.70
2018-03-04T17:59:18.532Z,125.37
2018-03-04T18:01:46.115Z,193.37
2018-03-04T18:04:13.680Z,132.47
2018-03-04T18:06:41.489Z,135.13
2018-03-04T18:09:09.304Z,111.20
2018-03-04T18:11:37.024Z,103.73
2018-03-04T18:14:04.616Z,119.50
2018-03-04T18:16:32.362Z,115.30
2018-03-04T18:19:00.161Z,123.20
2018-03-04T18:21:27.726Z,190.63
2018-03-04T18:23:55.358Z,160.73
2018-03-04T18:26:23.133Z,138.67
2018-03-04T18:28:50.827Z,132.00
2018-03-04T18:31:18.405Z,134.00
2018-03-04T18:33:45.971Z,118.77
2018-03-04T18:36:13.550Z,125.27
2018-03-04T18:38:41.113Z,122.30
2018-03-04T18:41:08.939Z,115.47
2018-03-04T18:43:36.672Z,112.83
2018-03-04T18:46:04.242Z,102.43
2018-03-04T18:48:31.805Z,99.83
2018-03-04T18:50:59.389Z,122.47
2018-03-04T18:53:27.070Z,139.27
2018-03-04T18:55:54.642Z,104.83
2018-03-04T18:58:22.202Z,87.67
2018-03-04T19:00:49.982Z,93.83
2018-03-04T19:03:17.699Z,99.63
2018-03-04T19:05:45.370Z,92.67
2018-03-04T19:08:12.930Z,96.03
2018-03-04T19:10:40.494Z,93.97
2018-03-04T19:13:08.241Z,94.07
2018-03-04T19:15:35.879Z,135.07
2018-03-04T19:18:03.521Z,108.70
2018-03-04T19:20:31.082Z,94.77
2018-03-04T19:22:58.642Z,120.93
2018-03-04T19:25:26.462Z,126.47
2018-03-04T19:27:54.037Z,111.47
2018-03-04T19:30:21.798Z,103.47
2018-03-04T19:32:49.616Z,114.23
2018-03-04T19:35:17.249Z,111.00
2018-03-04T19:37:44.818Z,105.40
2018-03-04T19:40:12.404Z,116.40
2018-03-04T19:42:39.985Z,126.10
2018-03-04T19:45:07.805Z,125.60
2018-03-04T19:47:35.614Z,121.57
2018-03-04T19:50:03.442Z,123.13
2018-03-04T19:52:31.100Z,115.77
2018-03-04T19:54:58.768Z,137.20
2018-03-04T19:57:26.419Z,142.93
2018-03-04T19:59:53.995Z,138.63
2018-03-04T20:02:21.731Z,111.00
2018-03-04T20:04:49.550Z,113.27
2018-03-04T20:07:17.286Z,124.77
2018-03-04T20:09:44.854Z,124.70
2018-03-04T20:12:12.605Z,141.03
2018-03-04T20:14:40.420Z,131.73
2018-03-04T20:17:08.056Z,130.27
2018-03-04T20:19:35.638Z,113.97
2018-03-04T20:22:03.214Z,109.37
2018-03-04T20:24:30.796Z,110.40
2018-03-04T20:26:58.512Z,109.53
2018-03-04T20:29:26.291Z,109.40
2018-03-04T20:31:54.036Z,105.37
2018-03-04T20:34:21.601Z,124.73
2018-03-04T20:36:49.178Z,126.53
2018-03-04T20:39:16.745Z,131.23
2018-03-04T20:41:44.418Z,133.17
2018-03-04T20:44:11.981Z,137.53
2018-03-04T20:46:39.702Z,181.63
2018-03-04T20:49:07.474Z,188.10
2018-03-04T20:51:35.293Z,175.70
2018-03-04T20:54:02.884Z,157.30
2018-03-04T20:56:30.521Z,157.53
2018-03-04T20:58:58.104Z,160.60
2018-03-04T21:01:25.754Z,140.60
2018-03-04T21:03:53.472Z,107.80
2018-03-04T21:06:21.059Z,99.00
2018-03-04T21:08:48.724Z,92.73
2018-03-04T21:11:16.300Z,92.83
2018-03-04T21:13:43.940Z,95.77
2018-03-04T21:16:11.771Z,99.37
2018-03-04T21:18:39.590Z,104.00
2018-03-04T21:21:07.412Z,114.27
2018-03-04T21:23:34.995Z,106.60
2018-03-04T21:26:02.563Z,106.60
2018-03-04T21:28:30.138Z,105.83
2018-03-04T21:30:57.704Z,108.80
2018-03-04T21:33:25.497Z,110.10
2018-03-04T21:35:53.067Z,109.07
2018-03-04T21:38:20.838Z,112.80
2018-03-04T21:40:48.410Z,113.70
2018-03-04T21:43:15.973Z,108.10
2018-03-04T21:45:43.546Z,120.73
2018-03-04T21:48:11.113Z,132.13
2018-03-04T21:50:38.925Z,93.70
2018-03-04T21:53:06.498Z,126.03
2018-03-04T21:55:34.122Z,134.23
2018-03-04T21:58:01.686Z,126.47
2018-03-04T22:00:29.494Z,132.03
2018-03-04T22:02:57.078Z,114.70
2018-03-04T22:05:24.794Z,139.10
2018-03-04T22:07:52.417Z,124.40
2018-03-04T22:10:20.169Z,102.73
2018-03-04T22:12:47.934Z,100.83
2018-03-04T22:15:15.511Z,111.13
2018-03-04T22:17:43.082Z,103.43
2018-03-04T22:20:10.837Z,100.47
2018-03-04T22:22:38.441Z,94.23
2018-03-04T22:25:06.275Z,93.80
2018-03-04T22:27:33.836Z,93.97
2018-03-04T22:30:01.517Z,90.27
2018-03-04T22:32:29.077Z,115.23
2018-03-04T22:34:56.651Z,115.73
2018-03-04T22:37:24.464Z,117.37
2018-03-04T22:39:52.282Z,118.53
2018-03-04T22:42:19.854Z,119.77
2018-03-04T22:44:47.436Z,121.43
2018-03-04T22:47:15.071Z,118.23
2018-03-04T22:49:42.954Z,119.67
2018-03-04T22:52:10.525Z,122.53
2018-03-04T22:54:38.098Z,125.57
2018-03-04T22:57:05.666Z,123.27
2018-03-04T22:59:33.424Z,123.97
2018-03-04T23:02:01.242Z,124.80
2018-03-04T23:04:28.862Z,132.27
2018-03-04T23:06:56.427Z,126.07
2018-03-04T23:09:24.164Z,129.17
2018-03-04T23:11:51.738Z,133.27
2018-03-04T23:14:19.734Z,146.10
2018-03-04T23:16:47.317Z,130.50
2018-03-04T23:19:15.056Z,123.30
2018-03-04T23:21:42.692Z,120.27
2018-03-04T23:24:10.407Z,123.77
2018-03-04T23:26:38.228Z,125.97
2018-03-04T23:29:05.805Z,125.50
2018-03-04T23:31:33.370Z,128.97
2018-03-04T23:34:01.178Z,128.33
2018-03-04T23:36:28.745Z,130.27
2018-03-04T23:38:56.321Z,131.27
2018-03-04T23:41:24.132Z,126.13
2018-03-04T23:43:51.701Z,129.30
2018-03-04T23:46:19.376Z,132.83
2018-03-04T23:48:46.933Z,141.97
2018-03-04T23:51:14.595Z,137.17
2018-03-04T23:53:42.421Z,126.83
2018-03-04T23:56:09.986Z,123.53
2018-03-04T23:58:37.562Z,120.80
